メインページ
METAR-TAF:

METAR-TAF

空港 :

マイアミ国際空港

マイアミ, フロリダ州, アメリカ合衆国

緯度: 25-47-26N, 経度: 080-18-59W, 海抜: 3m

現時点の気象観測

当レポートは27分前の09:20(UTC)に作成
の風 14kt、最大21ktの突風を伴う
気温 22°C
湿度 100%
気圧 1017 hPa
視程: 4.0km
高度1400ftの雲は散在している, 積乱雲.
高度2600ftの千切れ雲あり
高度4000ftの曇り
雨, 靄

METAR: KMIA 200920Z 19014G21KT 2 1/2SM RA BR SCT014CB BKN026 OVC040 22/22 A3003 RMK AO2 WSHFT 0848 CB ALQDS MOV NW P0055 T02220222 $

時間: 05:47 (09:47 UTC)

予報

当レポートは40分前の09:07(UTC)に作成
予報は20日の 09時(UTC)から 21日の 12時(UTC)まで有効
東/南東の風 11kt
視程: 8.0km
高度1500ftの雲は散在している, 積乱雲.
高度3000ftの千切れ雲あり
高度6000ftの曇り
にわか雨, 近辺で激しい雷雨
20日の 09時(UTC)から 20日の 11時(UTC)まで一時的に
南/南東の風 20kt、最大30ktの突風を伴う
視程: 3.2km
高度1500ftの千切れ雲あり
激しいにわか雨
20日の 1400時(UTC)から
南東の風 15kt
視程: 10km
高度2000ftの雲は散在している, 積乱雲.
高度4000ftの千切れ雲あり
高度10000ftの曇り
にわか雨, 近辺で激しい雷雨
20日の 14時(UTC)から 20日の 18時(UTC)まで一時的に
視程: 6.4km
高度2000ftの千切れ雲あり
にわか雨
20日の 1900時(UTC)から
南東の風 13kt
視程: 10km
高度2000ftの雲は散在している
高度12000ftの曇り
近辺でにわか雨

TAF: KMIA 200907Z 2009/2112 12011KT 5SM SHRA VCTS SCT015CB BKN030 OVC060 TEMPO 2009/2011 15020G30KT 2SM +SHRA BKN015 FM201400 13015KT P6SM SHRA VCTS SCT020CB BKN040 OVC100 TEMPO 2014/2018 4SM SHRA BKN020 FM201900 14013KT P6SM VCSH SCT020 OVC120

4,000以上の空港の気象観測と天気予報(METAR報とTAF報)

利用可能な観測所は地図上に黄色い丸と赤い丸で示す。

丸の上にカーソルを重ねると観測所名を参照できる。

次にクリックすると気象観測と天気予報を参照できる。

マップの切り替え:黒色「×」印の緑ボタンをクリックして拡大、「-」印の緑ボタンをクリックして縮小、緑色の三角印をクリックして隣りの地図に切り替え


METAR-TAF: